KMTV

Details ICAO KMTV
Name Martinsville - Blue Ridge
Region United States
Timezone America/New_York (UTC-5.0)
Plans Departing 6
Arriving 3
Stats Elevation 941 ft / 287 m (AMSL)
Location 36.630754° -80.018339°
Runways 1
Magnetic Variation 8.539° W
Sunrise 2017-12-13 12:25:17 UTC / 2017-12-13 07:25:17 Local
Sunset 2017-12-13 22:06:19 UTC / 2017-12-13 17:06:19 Local
Advertisement - Login to hide

Runways

ID Width Length Bearing (true) Bearing (mag) Surface Threshold Offset Overrun Length
12 98 ft / 30 m 4,997 ft / 1,523 m 118.30° 126.84° Asphalt 0 ft / 0 m 0 ft / 0 m
30 98 ft / 30 m 4,997 ft / 1,523 m 298.30° 306.84° Asphalt 0 ft / 0 m 0 ft / 0 m

Approach Navaids

Runway Type Ident Frequency Range Bearing (true) Bearing (mag) Slope Elevation
30 Localiser IUVM 111.30 MHz 18 nm / 33 km 298.30° 306.84° - 941 ft / 287 m (AMSL)

Map

Weather


0- 5 10 15 20 25 30 35+ Temperature / ° C

Clouds and Precipitation
Forecast for 2017-12-13 18:00 UTC. Updated 11 minutes ago

Ground ~20,000 ft ~40,000 ft Winds

METAR

KMTV 131735Z AUTO 21006KT 170V250 10SM CLR 02/M15 A2989 RMK AO2 T00201155

TAF

Not found

Frequencies

Recorded 118.45 MHz AWOS 3
Clearance 124.85 MHz CLNC DEL
Unicom 122.70 MHz CTAF/UNICOM
Approach 124.35 MHz GREENSBORO APP/DEP
Warning: Do not use this data for real-world aviation or navigation. No guarantee of current accuracy is given.